Time;durP1;ratioP1;P1;durP2;ratioP2;P2;SDS_P1;SDS_P2;PMS_P1;PMS_P2;Temp;Humidity;BMP_temperature;BMP_pressure;BME280_temperature;BME280_humidity;BME280_pressure;Samples;Min_cycle;Max_cycle;Signal;HPM_P1;HPM_P2
2023/09/24 00:02:09;;;;;;;3.00;1.87;;;;;;;;;;5101262;27;20197;-71
2023/09/24 00:04:36;;;;;;;4.17;2.20;;;;;;;;;;5100602;27;20228;-71
2023/09/24 00:07:03;;;;;;;2.73;2.20;;;;;;;;;;5098300;27;20194;-71
2023/09/24 00:09:31;;;;;;;2.33;1.50;;;;;;;;;;5098836;28;20201;-71
2023/09/24 00:11:58;;;;;;;2.13;1.93;;;;;;;;;;5095237;27;20213;-72
2023/09/24 00:14:26;;;;;;;4.03;1.93;;;;;;;;;;5099610;27;20247;-71
2023/09/24 00:16:55;;;;;;;3.23;2.00;;;;;;;;;;5101626;28;22349;-72
2023/09/24 00:19:23;;;;;;;2.63;1.97;;;;;;;;;;5096620;27;20201;-71
2023/09/24 00:21:50;;;;;;;3.57;2.07;;;;;;;;;;5095994;28;20194;-72
2023/09/24 00:24:18;;;;;;;3.10;2.20;;;;;;;;;;5097515;27;20232;-71
2023/09/24 00:26:45;;;;;;;3.00;2.43;;;;;;;;;;5100683;27;20201;-72
2023/09/24 00:29:13;;;;;;;2.40;1.70;;;;;;;;;;5104935;27;20190;-71
2023/09/24 00:31:40;;;;;;;4.90;1.93;;;;;;;;;;5106747;27;20372;-71
2023/09/24 00:34:08;;;;;;;3.23;1.97;;;;;;;;;;5101901;28;20194;-72
2023/09/24 00:36:36;;;;;;;2.13;1.80;;;;;;;;;;5106074;27;20211;-72
2023/09/24 00:39:04;;;;;;;3.43;2.10;;;;;;;;;;5107477;27;20202;-72
2023/09/24 00:41:31;;;;;;;2.10;1.70;;;;;;;;;;5099154;27;20210;-72
2023/09/24 00:44:00;;;;;;;3.40;1.60;;;;;;;;;;5094605;28;20203;-72
2023/09/24 00:46:27;;;;;;;2.60;1.63;;;;;;;;;;5103723;27;20202;-72
2023/09/24 00:48:55;;;;;;;1.70;1.60;;;;;;;;;;5099273;28;20197;-71
2023/09/24 00:51:26;;;;;;;2.40;1.50;;;;;;;;;;5102981;28;20222;-72
2023/09/24 00:53:54;;;;;;;2.63;1.60;;;;;;;;;;5098312;27;20229;-72
2023/09/24 00:56:22;;;;;;;2.47;1.83;;;;;;;;;;5098853;28;20280;-72
2023/09/24 00:58:51;;;;;;;1.53;1.40;;;;;;;;;;5100314;28;20198;-72
2023/09/24 01:01:20;;;;;;;2.03;1.57;;;;;;;;;;5098687;27;20270;-71
2023/09/24 01:03:49;;;;;;;2.83;1.80;;;;;;;;;;5098389;28;20270;-72
2023/09/24 01:06:17;;;;;;;2.63;1.77;;;;;;;;;;5104383;28;20202;-71
2023/09/24 01:08:45;;;;;;;1.77;1.50;;;;;;;;;;5097002;27;20202;-72
2023/09/24 01:11:13;;;;;;;3.10;2.07;;;;;;;;;;5102232;27;20225;-72
2023/09/24 01:13:41;;;;;;;4.57;2.23;;;;;;;;;;5101291;28;20273;-71
2023/09/24 01:16:08;;;;;;;3.50;1.93;;;;;;;;;;5101688;28;20197;-72
2023/09/24 01:18:38;;;;;;;4.03;2.03;;;;;;;;;;5098883;28;20202;-72
2023/09/24 01:21:07;;;;;;;3.00;1.73;;;;;;;;;;5097737;28;20493;-72
2023/09/24 01:23:40;;;;;;;3.47;2.20;;;;;;;;;;5098776;28;20202;-71
2023/09/24 01:26:10;;;;;;;3.00;2.20;;;;;;;;;;5096874;28;20245;-72
2023/09/24 01:28:39;;;;;;;3.23;2.10;;;;;;;;;;5097054;28;20263;-71
2023/09/24 01:31:06;;;;;;;2.47;2.20;;;;;;;;;;5101793;27;20229;-72
2023/09/24 01:33:36;;;;;;;2.47;1.83;;;;;;;;;;5094962;28;20349;-71
2023/09/24 01:36:03;;;;;;;8.00;2.13;;;;;;;;;;5099757;28;20226;-72
2023/09/24 01:38:31;;;;;;;3.80;2.43;;;;;;;;;;5100535;28;20220;-72
2023/09/24 01:41:00;;;;;;;3.23;2.00;;;;;;;;;;5098696;28;20198;-72
2023/09/24 01:43:27;;;;;;;3.03;1.80;;;;;;;;;;5095543;28;20212;-72
2023/09/24 01:45:54;;;;;;;2.83;1.73;;;;;;;;;;5095503;28;20193;-72
2023/09/24 01:48:21;;;;;;;1.60;1.50;;;;;;;;;;5098105;28;20190;-72
2023/09/24 01:50:48;;;;;;;2.33;2.03;;;;;;;;;;5098176;28;20201;-72
2023/09/24 01:53:16;;;;;;;2.17;1.70;;;;;;;;;;5094504;28;20198;-71
2023/09/24 01:55:43;;;;;;;2.63;1.70;;;;;;;;;;5100453;28;20258;-71
2023/09/24 01:58:12;;;;;;;2.00;1.80;;;;;;;;;;5096148;28;20197;-70
2023/09/24 02:00:39;;;;;;;2.17;1.80;;;;;;;;;;5102526;28;20197;-71
2023/09/24 02:03:07;;;;;;;1.90;1.67;;;;;;;;;;5103296;28;20205;-72
2023/09/24 02:05:35;;;;;;;2.13;1.77;;;;;;;;;;5093492;28;20551;-71
2023/09/24 02:08:05;;;;;;;3.17;2.03;;;;;;;;;;5096458;28;20217;-71
2023/09/24 02:10:33;;;;;;;2.40;1.97;;;;;;;;;;5099596;28;20230;-71
2023/09/24 02:13:01;;;;;;;2.13;1.70;;;;;;;;;;5096032;28;20206;-72
2023/09/24 02:15:29;;;;;;;2.97;1.90;;;;;;;;;;5097139;28;20206;-72
2023/09/24 02:17:57;;;;;;;2.57;1.80;;;;;;;;;;5101037;28;20270;-71
2023/09/24 02:20:24;;;;;;;2.60;2.00;;;;;;;;;;5100347;28;20194;-72
2023/09/24 02:22:52;;;;;;;2.83;1.80;;;;;;;;;;5095991;28;20209;-71
2023/09/24 02:25:19;;;;;;;3.00;1.80;;;;;;;;;;5098072;28;20225;-71
2023/09/24 02:27:46;;;;;;;2.33;2.00;;;;;;;;;;5097052;28;20194;-72
2023/09/24 02:30:15;;;;;;;2.57;1.77;;;;;;;;;;5098171;28;20225;-71
2023/09/24 02:32:44;;;;;;;3.47;1.63;;;;;;;;;;5098594;28;20262;-71
2023/09/24 02:35:12;;;;;;;3.20;1.80;;;;;;;;;;5097599;28;20187;-72
2023/09/24 02:37:39;;;;;;;2.17;1.67;;;;;;;;;;5099002;28;20211;-71
2023/09/24 02:40:14;;;;;;;2.27;1.77;;;;;;;;;;5099944;28;20194;-71
2023/09/24 02:42:41;;;;;;;1.70;1.60;;;;;;;;;;5104092;28;20196;-72
2023/09/24 02:45:09;;;;;;;3.13;2.17;;;;;;;;;;5104625;27;20209;-72
2023/09/24 02:47:36;;;;;;;2.10;1.90;;;;;;;;;;5102145;27;20283;-71
2023/09/24 02:50:08;;;;;;;3.63;2.00;;;;;;;;;;5098652;28;20244;-72
2023/09/24 02:52:35;;;;;;;4.00;2.40;;;;;;;;;;5100377;27;20257;-72
2023/09/24 02:55:04;;;;;;;2.13;1.90;;;;;;;;;;5104849;27;20202;-71
2023/09/24 02:57:31;;;;;;;3.87;1.97;;;;;;;;;;5102347;27;20218;-71
2023/09/24 02:59:59;;;;;;;2.17;1.97;;;;;;;;;;5096580;27;20208;-71
2023/09/24 03:02:27;;;;;;;2.33;1.80;;;;;;;;;;5102795;27;20193;-72
2023/09/24 03:04:55;;;;;;;2.20;2.00;;;;;;;;;;5102763;27;20194;-71
2023/09/24 03:07:23;;;;;;;2.20;2.00;;;;;;;;;;5101167;27;20206;-72
2023/09/24 03:09:53;;;;;;;3.10;2.17;;;;;;;;;;5099496;28;20202;-66
2023/09/24 03:12:20;;;;;;;3.63;2.40;;;;;;;;;;5099728;27;20210;-66
2023/09/24 03:14:47;;;;;;;2.50;2.30;;;;;;;;;;5103744;28;20209;-67
2023/09/24 03:17:15;;;;;;;3.77;2.60;;;;;;;;;;5103224;27;20202;-67
2023/09/24 03:19:42;;;;;;;2.93;2.57;;;;;;;;;;5099502;27;20280;-67
2023/09/24 03:22:09;;;;;;;2.27;2.07;;;;;;;;;;5100095;27;20223;-68
2023/09/24 03:24:38;;;;;;;3.27;2.47;;;;;;;;;;5103298;27;20197;-67
2023/09/24 03:27:05;;;;;;;2.70;2.37;;;;;;;;;;5102537;27;20204;-67
2023/09/24 03:29:32;;;;;;;2.77;2.17;;;;;;;;;;5103495;28;20202;-67
2023/09/24 03:31:59;;;;;;;3.80;2.60;;;;;;;;;;5097470;27;20230;-67
2023/09/24 03:34:28;;;;;;;3.57;2.50;;;;;;;;;;5100517;27;20296;-68
2023/09/24 03:36:55;;;;;;;3.43;2.43;;;;;;;;;;5101484;27;20197;-67
2023/09/24 03:39:23;;;;;;;3.23;2.50;;;;;;;;;;5098597;28;20263;-67
2023/09/24 03:41:51;;;;;;;2.60;2.40;;;;;;;;;;5099596;28;20198;-67
2023/09/24 03:44:18;;;;;;;4.17;2.53;;;;;;;;;;5100136;28;20194;-68
2023/09/24 03:46:46;;;;;;;5.70;2.73;;;;;;;;;;5097285;27;20198;-67
2023/09/24 03:49:13;;;;;;;5.70;2.90;;;;;;;;;;5098124;27;20229;-68
2023/09/24 03:51:40;;;;;;;5.60;3.60;;;;;;;;;;5101755;27;20227;-67
2023/09/24 03:54:07;;;;;;;8.03;3.47;;;;;;;;;;5101142;28;20205;-67
2023/09/24 03:56:34;;;;;;;15.57;3.07;;;;;;;;;;5101127;27;20293;-68
2023/09/24 03:59:03;;;;;;;11.83;2.87;;;;;;;;;;5095322;28;20199;-67
2023/09/24 04:01:31;;;;;;;20.90;3.17;;;;;;;;;;5105161;27;20247;-67
2023/09/24 04:03:59;;;;;;;61.57;4.50;;;;;;;;;;5102261;27;20198;-67
2023/09/24 04:06:26;;;;;;;35.47;3.87;;;;;;;;;;5102039;27;20200;-67
2023/09/24 04:08:54;;;;;;;29.57;3.10;;;;;;;;;;5097775;27;20239;-68
2023/09/24 04:11:21;;;;;;;24.90;3.33;;;;;;;;;;5103970;27;21774;-68
2023/09/24 04:13:48;;;;;;;5.57;2.40;;;;;;;;;;5099710;28;20213;-67
2023/09/24 04:16:17;;;;;;;13.50;2.77;;;;;;;;;;5102578;27;20232;-67
2023/09/24 04:18:44;;;;;;;14.97;2.70;;;;;;;;;;5100826;27;20201;-72
2023/09/24 04:21:16;;;;;;;4.30;2.40;;;;;;;;;;5101097;27;20224;-72
2023/09/24 04:23:43;;;;;;;2.50;2.30;;;;;;;;;;5101236;27;20210;-72
2023/09/24 04:26:20;;;;;;;3.30;2.20;;;;;;;;;;5103502;27;20193;-72
2023/09/24 04:28:47;;;;;;;3.07;2.30;;;;;;;;;;5102849;27;20197;-72
2023/09/24 04:31:14;;;;;;;1.80;1.70;;;;;;;;;;5107963;28;20233;-73
2023/09/24 04:33:44;;;;;;;2.00;1.90;;;;;;;;;;5100834;27;20222;-72
2023/09/24 04:36:11;;;;;;;1.33;1.33;;;;;;;;;;5099610;27;20204;-72
2023/09/24 04:38:38;;;;;;;2.53;1.40;;;;;;;;;;5100465;28;20318;-72
2023/09/24 04:41:05;;;;;;;2.63;1.50;;;;;;;;;;5104532;27;20205;-72
2023/09/24 04:43:35;;;;;;;1.50;1.40;;;;;;;;;;5107495;28;20204;-72
2023/09/24 04:46:04;;;;;;;1.60;1.50;;;;;;;;;;5094707;28;20202;-72
2023/09/24 04:48:31;;;;;;;1.70;1.60;;;;;;;;;;5096199;27;20202;-72
2023/09/24 04:51:00;;;;;;;4.50;2.13;;;;;;;;;;5102780;28;20286;-73
2023/09/24 04:53:27;;;;;;;10.53;2.20;;;;;;;;;;5096824;27;20210;-72
2023/09/24 04:55:54;;;;;;;15.20;2.10;;;;;;;;;;5098627;28;20212;-72
2023/09/24 04:58:21;;;;;;;8.07;1.97;;;;;;;;;;5098944;28;20203;-72
2023/09/24 05:00:48;;;;;;;26.37;3.20;;;;;;;;;;5100468;28;20194;-72
2023/09/24 05:03:16;;;;;;;9.47;2.30;;;;;;;;;;5098627;28;20197;-72
2023/09/24 05:05:43;;;;;;;7.33;1.80;;;;;;;;;;5102104;27;20292;-72
2023/09/24 05:08:11;;;;;;;3.23;2.00;;;;;;;;;;5101380;28;20197;-72
2023/09/24 05:10:42;;;;;;;17.97;2.13;;;;;;;;;;5109775;27;20197;-72
2023/09/24 05:13:09;;;;;;;29.70;2.53;;;;;;;;;;5104043;28;20213;-72
2023/09/24 05:15:37;;;;;;;33.20;2.83;;;;;;;;;;5100383;28;20198;-72
2023/09/24 05:18:04;;;;;;;19.23;2.07;;;;;;;;;;5101277;28;20198;-72
2023/09/24 05:20:32;;;;;;;4.03;1.90;;;;;;;;;;5096611;27;20255;-72
2023/09/24 05:23:00;;;;;;;9.10;1.87;;;;;;;;;;5101113;28;20285;-72
2023/09/24 05:25:29;;;;;;;13.03;2.20;;;;;;;;;;5107684;27;20202;-72
2023/09/24 05:27:57;;;;;;;7.40;2.07;;;;;;;;;;5102069;28;20208;-72
2023/09/24 05:30:24;;;;;;;10.47;2.10;;;;;;;;;;5107078;28;20233;-73
2023/09/24 05:32:51;;;;;;;12.13;2.37;;;;;;;;;;5106048;28;20223;-72
2023/09/24 05:35:18;;;;;;;7.37;2.00;;;;;;;;;;5099085;28;20201;-73
2023/09/24 05:37:45;;;;;;;24.23;2.50;;;;;;;;;;5098477;28;20202;-72
2023/09/24 05:40:13;;;;;;;2.90;2.30;;;;;;;;;;5099800;28;20197;-72
2023/09/24 05:42:42;;;;;;;23.00;2.60;;;;;;;;;;5094689;28;20288;-71
2023/09/24 05:45:09;;;;;;;10.70;2.23;;;;;;;;;;5097880;28;20190;-72
2023/09/24 05:47:36;;;;;;;22.80;2.43;;;;;;;;;;5095837;28;20229;-72
2023/09/24 05:50:04;;;;;;;4.93;1.80;;;;;;;;;;5094920;28;20204;-72
2023/09/24 05:52:31;;;;;;;5.10;1.40;;;;;;;;;;5098788;28;20220;-72
2023/09/24 05:54:58;;;;;;;1.77;1.40;;;;;;;;;;5096374;28;20194;-73
2023/09/24 05:57:26;;;;;;;1.40;1.30;;;;;;;;;;5095637;28;20206;-72
2023/09/24 05:59:54;;;;;;;1.67;1.40;;;;;;;;;;5097812;28;20202;-73
2023/09/24 06:02:24;;;;;;;5.57;1.67;;;;;;;;;;5093167;28;20190;-72
2023/09/24 06:04:51;;;;;;;3.80;1.60;;;;;;;;;;5104068;28;20225;-72
2023/09/24 06:07:18;;;;;;;3.13;1.90;;;;;;;;;;5095746;28;20207;-72
2023/09/24 06:09:46;;;;;;;7.53;1.63;;;;;;;;;;5095717;28;20204;-72
2023/09/24 06:12:13;;;;;;;1.97;1.40;;;;;;;;;;5101500;28;20251;-73
2023/09/24 06:14:41;;;;;;;2.47;1.37;;;;;;;;;;5102461;28;20225;-73
2023/09/24 06:17:09;;;;;;;1.90;1.53;;;;;;;;;;5103517;27;20258;-71
2023/09/24 06:19:36;;;;;;;4.53;1.73;;;;;;;;;;5104727;27;20207;-72
2023/09/24 06:22:03;;;;;;;4.97;1.67;;;;;;;;;;5104355;27;20205;-72
2023/09/24 06:24:31;;;;;;;1.40;1.30;;;;;;;;;;5101775;27;20205;-72
2023/09/24 06:26:58;;;;;;;2.30;1.20;;;;;;;;;;5100136;28;20201;-72
2023/09/24 06:29:25;;;;;;;1.43;1.37;;;;;;;;;;5106696;28;20198;-72
2023/09/24 06:31:52;;;;;;;2.30;1.23;;;;;;;;;;5101146;27;20245;-72
2023/09/24 06:34:21;;;;;;;0.90;0.90;;;;;;;;;;5102091;28;20258;-72
2023/09/24 06:36:48;;;;;;;1.23;0.93;;;;;;;;;;5103648;28;20198;-72
2023/09/24 06:39:15;;;;;;;1.63;0.80;;;;;;;;;;5104332;27;20205;-72
2023/09/24 06:41:43;;;;;;;1.43;0.70;;;;;;;;;;5101773;27;20203;-72
2023/09/24 06:44:10;;;;;;;31.37;1.70;;;;;;;;;;5102984;28;20190;-72
2023/09/24 06:46:38;;;;;;;67.23;2.93;;;;;;;;;;5099041;27;20625;-72
2023/09/24 06:49:05;;;;;;;24.67;1.60;;;;;;;;;;5098283;28;20198;-72
2023/09/24 06:51:33;;;;;;;4.63;1.00;;;;;;;;;;5102332;27;20201;-72
2023/09/24 06:54:00;;;;;;;25.73;2.27;;;;;;;;;;5101467;27;20205;-72
2023/09/24 06:56:27;;;;;;;8.17;2.23;;;;;;;;;;5108093;28;20190;-72
2023/09/24 06:58:54;;;;;;;1.80;1.70;;;;;;;;;;5102213;27;20230;-72
2023/09/24 07:01:22;;;;;;;1.73;1.43;;;;;;;;;;5102693;27;20197;-72
2023/09/24 07:03:49;;;;;;;10.00;1.60;;;;;;;;;;5105316;27;20194;-72
2023/09/24 07:06:17;;;;;;;74.73;5.03;;;;;;;;;;5103097;27;20214;-71
2023/09/24 07:08:46;;;;;;;8.40;2.80;;;;;;;;;;5101931;28;20255;-72
2023/09/24 07:11:23;;;;;;;1.97;1.60;;;;;;;;;;5103733;27;20217;-72
2023/09/24 07:13:50;;;;;;;1.10;0.93;;;;;;;;;;5098836;28;20202;-72
2023/09/24 07:16:17;;;;;;;9.63;1.23;;;;;;;;;;5097816;27;20194;-72
2023/09/24 07:18:46;;;;;;;3.80;0.80;;;;;;;;;;5100700;28;20293;-72
2023/09/24 07:21:13;;;;;;;16.43;1.37;;;;;;;;;;5100205;27;20194;-72
2023/09/24 07:23:41;;;;;;;1.57;0.67;;;;;;;;;;5107791;27;20248;-72
2023/09/24 07:26:09;;;;;;;2.33;0.70;;;;;;;;;;5099959;27;20205;-71
2023/09/24 07:28:37;;;;;;;20.23;1.43;;;;;;;;;;5095786;27;20206;-72
2023/09/24 07:31:04;;;;;;;24.20;1.50;;;;;;;;;;5094887;27;20233;-71
2023/09/24 07:33:31;;;;;;;4.80;0.97;;;;;;;;;;5093258;27;20213;-72
2023/09/24 07:35:58;;;;;;;3.93;1.00;;;;;;;;;;5097560;27;20202;-72
2023/09/24 07:38:25;;;;;;;21.67;1.40;;;;;;;;;;5095824;28;20190;-71
2023/09/24 07:40:52;;;;;;;50.47;2.37;;;;;;;;;;5091638;28;20206;-72
2023/09/24 07:43:21;;;;;;;49.40;2.37;;;;;;;;;;5095805;27;20286;-72
2023/09/24 07:45:48;;;;;;;10.47;1.43;;;;;;;;;;5100647;27;20204;-72
2023/09/24 07:48:15;;;;;;;6.83;1.07;;;;;;;;;;5100034;28;20223;-72
2023/09/24 07:50:49;;;;;;;35.83;2.27;;;;;;;;;;5097036;28;20221;-72
2023/09/24 07:53:16;;;;;;;0.80;0.80;;;;;;;;;;5103549;27;20209;-72
2023/09/24 07:55:44;;;;;;;0.90;0.90;;;;;;;;;;5103711;28;20198;-71
2023/09/24 07:58:11;;;;;;;2.93;1.50;;;;;;;;;;5098344;28;20190;-72
2023/09/24 08:00:41;;;;;;;1.50;0.80;;;;;;;;;;5099397;27;20192;-72
2023/09/24 08:03:08;;;;;;;14.20;1.23;;;;;;;;;;5099568;28;20233;-72
2023/09/24 08:05:35;;;;;;;0.77;0.77;;;;;;;;;;5096689;27;20224;-72
2023/09/24 08:08:02;;;;;;;17.43;1.53;;;;;;;;;;5099400;28;20198;-71
2023/09/24 08:10:29;;;;;;;0.90;0.90;;;;;;;;;;5098046;28;20205;-72
2023/09/24 08:12:56;;;;;;;1.57;0.97;;;;;;;;;;5098689;28;20517;-72
2023/09/24 08:15:23;;;;;;;2.00;1.00;;;;;;;;;;5098534;27;20206;-72
2023/09/24 08:17:52;;;;;;;11.47;1.23;;;;;;;;;;5095035;28;20190;-72
2023/09/24 08:20:19;;;;;;;3.33;1.10;;;;;;;;;;5099044;27;20198;-72
2023/09/24 08:22:46;;;;;;;1.00;1.00;;;;;;;;;;5100258;28;20206;-71
2023/09/24 08:25:13;;;;;;;1.00;1.00;;;;;;;;;;5099333;27;20198;-71
2023/09/24 08:27:40;;;;;;;1.77;0.90;;;;;;;;;;5094466;28;20204;-71
2023/09/24 08:30:08;;;;;;;0.90;0.90;;;;;;;;;;5097726;28;20208;-71
2023/09/24 08:32:35;;;;;;;1.93;1.00;;;;;;;;;;5101231;27;20210;-71
2023/09/24 08:35:04;;;;;;;1.53;1.00;;;;;;;;;;5101876;27;20213;-71
2023/09/24 08:37:31;;;;;;;2.63;1.30;;;;;;;;;;5099552;28;20262;-71
2023/09/24 08:39:58;;;;;;;1.87;1.17;;;;;;;;;;5107323;27;20210;-70
2023/09/24 08:42:26;;;;;;;1.17;1.17;;;;;;;;;;5100300;27;20216;-71
2023/09/24 08:44:59;;;;;;;1.30;1.30;;;;;;;;;;5100552;28;20204;-71
2023/09/24 08:47:27;;;;;;;1.13;1.13;;;;;;;;;;5094572;27;20289;-70
2023/09/24 08:49:55;;;;;;;2.50;1.37;;;;;;;;;;5095975;27;20197;-70
2023/09/24 08:52:24;;;;;;;1.20;1.20;;;;;;;;;;5095404;28;20203;-70
2023/09/24 08:54:52;;;;;;;1.10;1.00;;;;;;;;;;5094787;28;20269;-71
2023/09/24 08:57:19;;;;;;;1.47;1.37;;;;;;;;;;5100984;28;20198;-71
2023/09/24 08:59:46;;;;;;;1.23;1.10;;;;;;;;;;5103553;28;20216;-66
2023/09/24 09:02:14;;;;;;;1.20;1.10;;;;;;;;;;5097609;27;20198;-66
2023/09/24 09:04:48;;;;;;;1.40;1.30;;;;;;;;;;5100399;27;20187;-66
2023/09/24 09:07:16;;;;;;;1.47;1.00;;;;;;;;;;5100048;28;20205;-67
2023/09/24 09:09:54;;;;;;;1.10;1.10;;;;;;;;;;5097321;28;20248;-66
2023/09/24 09:12:21;;;;;;;1.10;1.03;;;;;;;;;;5095312;28;20273;-66
2023/09/24 09:14:48;;;;;;;3.17;1.23;;;;;;;;;;5104329;27;20202;-66
2023/09/24 09:17:15;;;;;;;1.10;1.00;;;;;;;;;;5091883;28;20205;-66
2023/09/24 09:19:51;;;;;;;1.47;1.10;;;;;;;;;;5096151;28;20202;-66
2023/09/24 09:22:19;;;;;;;2.37;1.20;;;;;;;;;;5102568;28;20254;-66
2023/09/24 09:24:49;;;;;;;1.10;1.00;;;;;;;;;;5100805;28;20304;-66
2023/09/24 09:27:16;;;;;;;1.10;1.00;;;;;;;;;;5093813;28;20289;-66
2023/09/24 09:29:43;;;;;;;1.70;1.00;;;;;;;;;;5098616;28;20198;-66
2023/09/24 09:32:11;;;;;;;0.90;0.90;;;;;;;;;;5097159;28;20240;-66
2023/09/24 09:34:38;;;;;;;2.00;0.90;;;;;;;;;;5093014;28;20225;-66
2023/09/24 09:37:17;;;;;;;0.85;0.85;;;;;;;;;;5096412;28;20222;-66
2023/09/24 09:39:45;;;;;;;1.30;1.10;;;;;;;;;;5093481;28;20278;-66
2023/09/24 09:42:17;;;;;;;2.45;1.00;;;;;;;;;;5102834;28;20193;-66
2023/09/24 09:44:45;;;;;;;0.88;0.80;;;;;;;;;;5099285;28;20231;-66
2023/09/24 09:47:14;;;;;;;2.08;0.82;;;;;;;;;;5106016;28;20244;-66
2023/09/24 09:49:44;;;;;;;0.80;0.73;;;;;;;;;;5100992;28;20288;-67
2023/09/24 09:52:15;;;;;;;2.20;1.00;;;;;;;;;;5097238;28;20197;-66
2023/09/24 09:54:43;;;;;;;2.38;1.00;;;;;;;;;;5105352;28;20251;-66
2023/09/24 09:57:10;;;;;;;1.30;0.90;;;;;;;;;;5105446;27;20202;-66
2023/09/24 09:59:39;;;;;;;1.10;1.00;;;;;;;;;;5101726;28;20202;-66
2023/09/24 10:02:07;;;;;;;1.00;0.90;;;;;;;;;;5100861;27;20205;-66
2023/09/24 10:04:34;;;;;;;0.90;0.90;;;;;;;;;;5094467;28;20194;-65
2023/09/24 10:07:02;;;;;;;1.25;1.15;;;;;;;;;;5098876;28;20205;-66
2023/09/24 10:09:35;;;;;;;1.10;1.00;;;;;;;;;;5101453;27;20301;-65
2023/09/24 10:12:06;;;;;;;1.77;1.10;;;;;;;;;;5104434;28;20198;-65
2023/09/24 10:14:34;;;;;;;2.00;0.90;;;;;;;;;;5103897;27;20217;-65
2023/09/24 10:17:20;;;;;;;1.42;0.88;;;;;;;;;;5102245;28;20194;-65
2023/09/24 10:19:50;;;;;;;1.95;0.82;;;;;;;;;;5101240;28;20204;-65
2023/09/24 10:22:27;;;;;;;0.82;0.82;;;;;;;;;;5102523;28;20202;-65
2023/09/24 10:24:55;;;;;;;0.85;0.80;;;;;;;;;;5098996;27;20201;-65
2023/09/24 10:27:25;;;;;;;1.25;0.90;;;;;;;;;;5100211;28;20200;-65
2023/09/24 10:30:06;;;;;;;1.67;1.00;;;;;;;;;;5106396;27;20237;-66
2023/09/24 10:32:49;;;;;;;2.17;1.00;;;;;;;;;;5103322;27;20223;-66
2023/09/24 10:35:18;;;;;;;2.25;0.90;;;;;;;;;;5100216;28;20222;-65
2023/09/24 10:38:05;;;;;;;2.22;1.10;;;;;;;;;;5105333;27;20221;-65
2023/09/24 10:40:34;;;;;;;1.35;1.00;;;;;;;;;;5106647;27;20225;-65
2023/09/24 10:43:14;;;;;;;2.08;1.10;;;;;;;;;;5103425;27;20205;-65
2023/09/24 10:45:41;;;;;;;1.13;0.90;;;;;;;;;;5098745;28;20251;-65
2023/09/24 10:48:09;;;;;;;1.00;0.90;;;;;;;;;;5107925;27;20228;-65
2023/09/24 10:50:39;;;;;;;3.05;1.15;;;;;;;;;;5106770;28;20197;-64
2023/09/24 10:53:07;;;;;;;1.05;0.90;;;;;;;;;;5101450;28;20193;-64
2023/09/24 10:55:36;;;;;;;1.85;1.15;;;;;;;;;;5101690;28;20201;-64
2023/09/24 10:58:04;;;;;;;1.23;1.00;;;;;;;;;;5101924;28;20205;-64
2023/09/24 11:00:32;;;;;;;1.30;1.15;;;;;;;;;;5097141;27;20197;-63
2023/09/24 11:02:59;;;;;;;2.20;1.30;;;;;;;;;;5099555;27;20202;-64
2023/09/24 11:05:27;;;;;;;1.40;0.90;;;;;;;;;;5101876;27;20286;-64
2023/09/24 11:07:56;;;;;;;1.33;1.00;;;;;;;;;;5105015;27;20205;-64
2023/09/24 11:10:24;;;;;;;1.95;1.00;;;;;;;;;;5099741;27;20198;-64
2023/09/24 11:12:51;;;;;;;2.60;1.10;;;;;;;;;;5102678;27;20197;-64
2023/09/24 11:15:18;;;;;;;1.15;1.00;;;;;;;;;;5104020;28;20206;-64
2023/09/24 11:17:46;;;;;;;3.78;1.17;;;;;;;;;;5106464;28;20219;-64
2023/09/24 11:20:13;;;;;;;1.60;1.10;;;;;;;;;;5102610;28;20201;-64
2023/09/24 11:22:41;;;;;;;2.10;1.10;;;;;;;;;;5101569;28;20204;-64
2023/09/24 11:25:10;;;;;;;1.02;0.90;;;;;;;;;;5099645;28;20201;-64
2023/09/24 11:27:38;;;;;;;1.15;1.00;;;;;;;;;;5105033;28;20206;-64
2023/09/24 11:30:05;;;;;;;1.83;1.15;;;;;;;;;;5103026;28;20209;-65
2023/09/24 11:32:32;;;;;;;1.70;1.00;;;;;;;;;;5105122;28;20216;-64
2023/09/24 11:35:09;;;;;;;1.05;1.00;;;;;;;;;;5104548;28;20213;-65
2023/09/24 11:37:50;;;;;;;1.25;0.90;;;;;;;;;;5108760;27;20201;-64
2023/09/24 11:40:25;;;;;;;2.72;1.10;;;;;;;;;;5103378;27;20209;-65
2023/09/24 11:42:54;;;;;;;1.20;1.10;;;;;;;;;;5104111;28;20281;-64
2023/09/24 11:45:35;;;;;;;1.27;1.10;;;;;;;;;;5103472;28;20455;-64
2023/09/24 11:48:02;;;;;;;1.27;1.00;;;;;;;;;;5093699;28;20194;-64
2023/09/24 11:50:30;;;;;;;1.27;0.93;;;;;;;;;;5098599;27;20255;-64
2023/09/24 11:52:57;;;;;;;1.20;1.00;;;;;;;;;;5102366;28;20209;-63
2023/09/24 11:55:25;;;;;;;1.20;1.10;;;;;;;;;;5098979;28;20222;-64
2023/09/24 11:57:53;;;;;;;1.35;1.10;;;;;;;;;;5102564;28;20202;-63
2023/09/24 12:00:20;;;;;;;2.50;1.02;;;;;;;;;;5101385;28;20285;-63
2023/09/24 12:02:47;;;;;;;1.20;1.10;;;;;;;;;;5097367;28;20213;-63
2023/09/24 12:05:15;;;;;;;1.02;0.90;;;;;;;;;;5097130;27;20190;-63
2023/09/24 12:07:42;;;;;;;1.25;1.02;;;;;;;;;;5098488;28;20206;-63
2023/09/24 12:10:10;;;;;;;1.27;1.10;;;;;;;;;;5101487;27;20209;-64
2023/09/24 12:12:38;;;;;;;1.63;1.10;;;;;;;;;;5098035;28;20198;-63
2023/09/24 12:15:06;;;;;;;1.77;1.10;;;;;;;;;;5105100;27;20217;-63
2023/09/24 12:17:34;;;;;;;1.33;1.02;;;;;;;;;;5099886;28;20198;-62
2023/09/24 12:20:01;;;;;;;0.98;0.88;;;;;;;;;;5101313;27;20194;-63
2023/09/24 12:22:29;;;;;;;1.45;0.98;;;;;;;;;;5100542;27;20213;-63
2023/09/24 12:24:57;;;;;;;1.52;0.98;;;;;;;;;;5102862;28;20410;-64
2023/09/24 12:27:25;;;;;;;1.50;1.10;;;;;;;;;;5098208;28;20285;-63
2023/09/24 12:29:54;;;;;;;0.82;0.82;;;;;;;;;;5105829;27;20229;-62
2023/09/24 12:32:23;;;;;;;1.48;1.08;;;;;;;;;;5101075;28;20234;-64
2023/09/24 12:34:50;;;;;;;1.40;0.93;;;;;;;;;;5097193;27;20312;-63
2023/09/24 12:37:17;;;;;;;2.17;1.00;;;;;;;;;;5104925;27;20204;-63
2023/09/24 12:39:44;;;;;;;1.38;0.82;;;;;;;;;;5089740;28;20209;-63
2023/09/24 12:42:11;;;;;;;2.05;0.90;;;;;;;;;;5099489;27;20208;-64
2023/09/24 12:44:39;;;;;;;2.00;1.10;;;;;;;;;;5098155;27;20197;-63
2023/09/24 12:47:07;;;;;;;2.08;1.10;;;;;;;;;;5093927;27;20201;-63
2023/09/24 12:49:34;;;;;;;1.67;1.05;;;;;;;;;;5095528;27;20197;-63
2023/09/24 12:52:04;;;;;;;1.60;0.90;;;;;;;;;;5095286;28;20306;-63
2023/09/24 12:54:32;;;;;;;1.15;0.88;;;;;;;;;;5100020;27;20217;-63
2023/09/24 12:56:59;;;;;;;1.15;0.93;;;;;;;;;;5097260;28;20206;-64
2023/09/24 12:59:27;;;;;;;1.70;1.00;;;;;;;;;;5101152;27;20201;-64
2023/09/24 13:01:54;;;;;;;3.17;1.13;;;;;;;;;;5094488;27;20202;-63
2023/09/24 13:04:23;;;;;;;1.13;1.08;;;;;;;;;;5102325;28;20201;-63
2023/09/24 13:06:50;;;;;;;1.33;1.00;;;;;;;;;;5099661;28;20229;-63
2023/09/24 13:09:19;;;;;;;2.15;1.13;;;;;;;;;;5098222;27;20198;-62
2023/09/24 13:11:46;;;;;;;1.58;0.90;;;;;;;;;;5100098;28;20209;-62
2023/09/24 13:14:14;;;;;;;0.90;0.90;;;;;;;;;;5099900;28;20211;-63
2023/09/24 13:16:42;;;;;;;1.23;1.00;;;;;;;;;;5095686;28;20259;-65
2023/09/24 13:19:11;;;;;;;0.80;0.80;;;;;;;;;;5094854;28;20206;-63
2023/09/24 13:21:40;;;;;;;1.33;1.23;;;;;;;;;;5096691;27;20217;-63
2023/09/24 13:24:08;;;;;;;0.80;0.80;;;;;;;;;;5097629;28;20198;-63
2023/09/24 13:26:36;;;;;;;1.40;1.10;;;;;;;;;;5095805;28;20194;-63
2023/09/24 13:29:03;;;;;;;1.38;1.00;;;;;;;;;;5100994;28;20190;-64
2023/09/24 13:31:30;;;;;;;0.98;0.88;;;;;;;;;;5095902;28;20241;-63
2023/09/24 13:33:57;;;;;;;1.48;0.95;;;;;;;;;;5101975;28;20190;-63
2023/09/24 13:36:24;;;;;;;1.15;1.00;;;;;;;;;;5092663;28;20218;-63
2023/09/24 13:38:53;;;;;;;1.38;1.10;;;;;;;;;;5095259;28;20215;-67
2023/09/24 13:41:20;;;;;;;1.20;1.10;;;;;;;;;;5091387;28;20206;-67
2023/09/24 13:43:47;;;;;;;3.53;1.10;;;;;;;;;;5096320;28;20197;-68
2023/09/24 13:46:14;;;;;;;1.48;0.90;;;;;;;;;;5091080;28;20202;-67
2023/09/24 13:48:41;;;;;;;0.80;0.70;;;;;;;;;;5098013;28;20224;-68
2023/09/24 13:51:08;;;;;;;1.02;0.90;;;;;;;;;;5094506;28;20209;-68
2023/09/24 13:53:35;;;;;;;0.90;0.90;;;;;;;;;;5097092;28;20194;-69
2023/09/24 13:56:05;;;;;;;1.30;1.10;;;;;;;;;;5092720;28;20209;-68
2023/09/24 13:58:32;;;;;;;1.08;1.00;;;;;;;;;;5092982;28;20205;-68
2023/09/24 14:01:01;;;;;;;1.17;1.10;;;;;;;;;;5089573;28;20209;-68
2023/09/24 14:03:28;;;;;;;0.85;0.80;;;;;;;;;;5095851;28;20205;-68
2023/09/24 14:05:59;;;;;;;0.98;0.98;;;;;;;;;;5098007;28;20190;-68
2023/09/24 14:13:57;;;;;;;1.52;1.08;;;;;;;;;;5091473;28;20254;-68
2023/09/24 14:16:24;;;;;;;2.22;0.90;;;;;;;;;;5099115;28;20206;-69
2023/09/24 14:18:51;;;;;;;1.83;1.10;;;;;;;;;;5090931;28;20228;-68
2023/09/24 14:21:20;;;;;;;1.10;0.98;;;;;;;;;;5095347;28;20194;-68
2023/09/24 14:23:47;;;;;;;1.10;1.00;;;;;;;;;;5096301;28;20228;-68
2023/09/24 14:26:15;;;;;;;2.85;1.00;;;;;;;;;;5098529;28;20407;-69
2023/09/24 14:28:42;;;;;;;1.42;0.90;;;;;;;;;;5103224;28;20198;-69
2023/09/24 14:31:10;;;;;;;1.95;1.00;;;;;;;;;;5095191;28;20226;-68
2023/09/24 14:33:37;;;;;;;1.40;1.10;;;;;;;;;;5095587;28;20194;-69
2023/09/24 14:36:04;;;;;;;1.20;1.15;;;;;;;;;;5099219;28;20218;-68
2023/09/24 14:38:31;;;;;;;1.20;1.10;;;;;;;;;;5104672;27;20271;-69
2023/09/24 14:40:59;;;;;;;1.23;1.13;;;;;;;;;;5097991;27;20241;-69
2023/09/24 14:43:28;;;;;;;1.23;1.13;;;;;;;;;;5100962;27;20198;-69
2023/09/24 14:45:58;;;;;;;1.10;1.10;;;;;;;;;;5097214;27;20204;-70
2023/09/24 14:48:26;;;;;;;1.92;1.20;;;;;;;;;;5096222;28;20209;-69
2023/09/24 14:50:54;;;;;;;1.02;0.95;;;;;;;;;;5100875;27;20232;-69
2023/09/24 14:53:22;;;;;;;1.20;1.17;;;;;;;;;;5101350;27;20202;-69